Time;durP1;ratioP1;P1;durP2;ratioP2;P2;SDS_P1;SDS_P2;PMS_P1;PMS_P2;Temp;Humidity;BMP_temperature;BMP_pressure;BME280_temperature;BME280_humidity;BME280_pressure;Samples;Min_cycle;Max_cycle;Signal;HPM_P1;HPM_P2
2023/09/05 00:02:20;;;;;;;;;;;;;;;;;;5018468;28;19987;-86
2023/09/05 00:04:47;;;;;;;;;;;;;;;;;;5022236;28;19939;-86
2023/09/05 00:07:16;;;;;;;;;;;;;;;;;;5028721;28;19917;-86
2023/09/05 00:09:42;;;;;;;;;;;;;;;;;;5021811;28;19937;-88
2023/09/05 00:12:07;;;;;;;;;;;;;;;;;;5034109;28;19921;-87
2023/09/05 00:14:33;;;;;;;;;;;;;;;;;;5017845;28;22566;-86
2023/09/05 00:16:58;;;;;;;;;;;;;;;;;;5004212;28;20381;-86
2023/09/05 00:19:26;;;;;;;;;;;;;;;;;;5019908;28;19922;-86
2023/09/05 00:21:51;;;;;;;;;;;;;;;;;;5047580;28;20384;-86
2023/09/05 00:24:23;;;;;;;;;;;;;;;;;;5048111;28;19930;-86
2023/09/05 00:26:48;;;;;;;;;;;;;;;;;;5019820;28;19928;-86
2023/09/05 00:29:14;;;;;;;;;;;;;;;;;;5036931;28;20739;-86
2023/09/05 00:31:40;;;;;;;;;;;;;;;;;;5048867;28;19944;-85
2023/09/05 00:34:05;;;;;;;;;;;;;;;;;;5013954;28;20110;-85
2023/09/05 00:36:30;;;;;;;;;;;;;;;;;;4993828;28;19943;-86
2023/09/05 00:38:56;;;;;;;;;;;;;;;;;;5006437;28;19963;-86
2023/09/05 00:41:21;;;;;;;;;;;;;;;;;;5015271;28;19947;-86
2023/09/05 00:43:49;;;;;;;;;;;;;;;;;;5036470;28;19921;-86
2023/09/05 00:46:14;;;;;;;;;;;;;;;;;;5022415;28;19921;-86
2023/09/05 00:48:42;;;;;;;;;;;;;;;;;;5033058;28;19929;-86
2023/09/05 00:51:08;;;;;;;;;;;;;;;;;;5016346;28;20452;-85
2023/09/05 00:53:35;;;;;;;;;;;;;;;;;;5048730;28;20016;-86
2023/09/05 00:56:01;;;;;;;;;;;;;;;;;;5024455;28;19952;-86
2023/09/05 00:58:26;;;;;;;;;;;;;;;;;;5048471;28;19921;-86
2023/09/05 01:00:51;;;;;;;;;;;;;;;;;;5014170;28;20270;-86
2023/09/05 01:03:16;;;;;;;;;;;;;;;;;;5018365;28;20043;-85
2023/09/05 01:05:43;;;;;;;;;;;;;;;;;;5034481;28;19928;-86
2023/09/05 01:08:16;;;;;;;;;;;;;;;;;;4998574;28;20438;-85
2023/09/05 01:10:59;;;;;;;;;;;;;;;;;;5031714;28;19944;-86
2023/09/05 01:13:25;;;;;;;;;;;;;;;;;;5038818;28;19921;-86
2023/09/05 01:15:51;;;;;;;;;;;;;;;;;;5015772;28;19921;-86
2023/09/05 01:18:16;;;;;;;;;;;;;;;;;;5031837;28;19917;-86
2023/09/05 01:21:02;;;;;;;;;;;;;;;;;;5015849;28;19917;-86
2023/09/05 01:23:31;;;;;;;;;;;;;;;;;;5027205;28;20324;-85
2023/09/05 01:25:57;;;;;;;;;;;;;;;;;;5037652;28;19944;-86
2023/09/05 01:28:23;;;;;;;;;;;;;;;;;;5017182;28;20004;-86
2023/09/05 01:30:48;;;;;;;;;;;;;;;;;;5035804;28;19991;-86
2023/09/05 01:33:14;;;;;;;;;;;;;;;;;;5031488;28;19940;-85
2023/09/05 01:35:39;;;;;;;;;;;;;;;;;;5031493;28;20201;-86
2023/09/05 01:38:05;;;;;;;;;;;;;;;;;;5049046;28;19917;-86
2023/09/05 01:40:30;;;;;;;;;;;;;;;;;;5037039;28;19936;-85
2023/09/05 01:42:55;;;;;;;;;;;;;;;;;;5016408;28;19922;-86
2023/09/05 01:45:21;;;;;;;;;;;;;;;;;;5016443;28;19945;-85
2023/09/05 01:47:46;;;;;;;;;;;;;;;;;;5030402;28;19988;-86
2023/09/05 01:50:12;;;;;;;;;;;;;;;;;;5025355;28;19955;-86
2023/09/05 01:52:37;;;;;;;;;;;;;;;;;;5015983;28;20454;-86
2023/09/05 01:55:03;;;;;;;;;;;;;;;;;;5048006;28;20103;-87
2023/09/05 01:57:28;;;;;;;;;;;;;;;;;;5046160;28;19917;-86
2023/09/05 01:59:53;;;;;;;;;;;;;;;;;;5040816;28;19928;-86
2023/09/05 02:02:19;;;;;;;;;;;;;;;;;;5014571;28;19921;-87
2023/09/05 02:04:44;;;;;;;;;;;;;;;;;;5005239;28;19968;-86
2023/09/05 02:07:09;;;;;;;;;;;;;;;;;;5048324;28;20009;-86
2023/09/05 02:09:35;;;;;;;;;;;;;;;;;;5014898;28;20028;-86
2023/09/05 02:12:00;;;;;;;;;;;;;;;;;;5008424;28;19925;-86
2023/09/05 02:14:25;;;;;;;;;;;;;;;;;;5014482;28;19922;-85
2023/09/05 02:16:51;;;;;;;;;;;;;;;;;;5019710;28;19921;-85
2023/09/05 02:19:17;;;;;;;;;;;;;;;;;;5047245;28;19932;-86
2023/09/05 02:21:42;;;;;;;;;;;;;;;;;;5035804;28;19921;-86
2023/09/05 02:24:07;;;;;;;;;;;;;;;;;;5027006;28;19932;-85
2023/09/05 02:26:32;;;;;;;;;;;;;;;;;;5034909;28;19925;-86
2023/09/05 02:29:01;;;;;;;;;;;;;;;;;;5036084;28;19964;-85
2023/09/05 02:31:26;;;;;;;;;;;;;;;;;;5036241;28;19918;-86
2023/09/05 02:33:54;;;;;;;;;;;;;;;;;;5017063;28;19992;-86
2023/09/05 02:36:20;;;;;;;;;;;;;;;;;;5027499;28;19925;-86
2023/09/05 02:38:46;;;;;;;;;;;;;;;;;;5042864;28;19974;-86
2023/09/05 02:41:15;;;;;;;;;;;;;;;;;;5042290;28;20389;-86
2023/09/05 02:43:40;;;;;;;;;;;;;;;;;;5051131;28;19921;-85
2023/09/05 02:46:06;;;;;;;;;;;;;;;;;;5022554;28;20781;-86
2023/09/05 02:48:32;;;;;;;;;;;;;;;;;;5023447;28;19925;-86
2023/09/05 02:51:01;;;;;;;;;;;;;;;;;;5018737;28;19979;-85
2023/09/05 02:53:26;;;;;;;;;;;;;;;;;;5034714;28;19921;-86
2023/09/05 02:55:51;;;;;;;;;;;;;;;;;;5022704;28;19928;-86
2023/09/05 02:58:17;;;;;;;;;;;;;;;;;;5014668;28;19971;-85
2023/09/05 03:00:42;;;;;;;;;;;;;;;;;;5048443;28;20040;-85
2023/09/05 03:03:08;;;;;;;;;;;;;;;;;;5018893;28;19928;-85
2023/09/05 03:05:38;;;;;;;;;;;;;;;;;;5034023;28;19926;-86
2023/09/05 03:08:10;;;;;;;;;;;;;;;;;;5049144;28;19939;-85
2023/09/05 03:10:37;;;;;;;;;;;;;;;;;;5034297;28;20300;-85
2023/09/05 03:13:03;;;;;;;;;;;;;;;;;;5018946;28;20718;-85
2023/09/05 03:15:28;;;;;;;;;;;;;;;;;;5018333;28;19921;-85
2023/09/05 03:17:56;;;;;;;;;;;;;;;;;;5036370;28;19921;-85
2023/09/05 03:20:25;;;;;;;;;;;;;;;;;;5033916;28;19922;-85
2023/09/05 03:22:51;;;;;;;;;;;;;;;;;;5029076;28;19975;-85
2023/09/05 03:25:16;;;;;;;;;;;;;;;;;;5010958;28;19924;-85
2023/09/05 03:27:41;;;;;;;;;;;;;;;;;;5036023;28;20022;-85
2023/09/05 03:30:07;;;;;;;;;;;;;;;;;;5034939;28;19929;-86
2023/09/05 03:32:32;;;;;;;;;;;;;;;;;;5032232;28;19918;-87
2023/09/05 03:34:58;;;;;;;;;;;;;;;;;;5018244;28;19917;-85
2023/09/05 03:37:23;;;;;;;;;;;;;;;;;;5016671;28;19931;-85
2023/09/05 03:39:48;;;;;;;;;;;;;;;;;;5049879;28;19921;-85
2023/09/05 03:42:14;;;;;;;;;;;;;;;;;;5015823;28;20360;-84
2023/09/05 03:44:39;;;;;;;;;;;;;;;;;;5034663;28;20377;-84
2023/09/05 03:47:05;;;;;;;;;;;;;;;;;;5016409;28;19917;-85
2023/09/05 03:49:30;;;;;;;;;;;;;;;;;;5026860;28;19932;-84
2023/09/05 03:51:57;;;;;;;;;;;;;;;;;;5008879;28;20025;-84
2023/09/05 03:54:22;;;;;;;;;;;;;;;;;;5032228;28;19921;-84
2023/09/05 03:56:48;;;;;;;;;;;;;;;;;;5017047;28;19928;-85
2023/09/05 03:59:14;;;;;;;;;;;;;;;;;;5017410;28;20388;-85
2023/09/05 04:01:39;;;;;;;;;;;;;;;;;;5033650;28;19917;-85
2023/09/05 04:04:05;;;;;;;;;;;;;;;;;;5036234;28;19917;-85
2023/09/05 04:06:31;;;;;;;;;;;;;;;;;;5018645;28;20340;-85
2023/09/05 04:08:56;;;;;;;;;;;;;;;;;;5048046;28;19929;-85
2023/09/05 04:11:22;;;;;;;;;;;;;;;;;;5009412;28;19921;-85
2023/09/05 04:13:50;;;;;;;;;;;;;;;;;;5049449;28;19921;-85
2023/09/05 04:16:15;;;;;;;;;;;;;;;;;;4999560;28;19921;-85
2023/09/05 04:18:40;;;;;;;;;;;;;;;;;;5016780;28;20289;-85
2023/09/05 04:21:05;;;;;;;;;;;;;;;;;;5008301;28;19928;-85
2023/09/05 04:23:31;;;;;;;;;;;;;;;;;;5024398;28;19924;-86
2023/09/05 04:25:59;;;;;;;;;;;;;;;;;;5047229;28;19917;-85
2023/09/05 04:28:25;;;;;;;;;;;;;;;;;;5035232;28;19984;-85
2023/09/05 04:30:51;;;;;;;;;;;;;;;;;;5031625;28;19933;-84
2023/09/05 04:33:16;;;;;;;;;;;;;;;;;;5016822;28;20390;-85
2023/09/05 04:35:42;;;;;;;;;;;;;;;;;;5033012;28;20397;-85
2023/09/05 04:38:09;;;;;;;;;;;;;;;;;;5033403;28;20055;-85
2023/09/05 04:40:34;;;;;;;;;;;;;;;;;;5031378;28;19929;-84
2023/09/05 04:42:59;;;;;;;;;;;;;;;;;;5006708;28;19932;-87
2023/09/05 04:45:25;;;;;;;;;;;;;;;;;;5016128;28;20286;-86
2023/09/05 04:47:50;;;;;;;;;;;;;;;;;;5018990;28;19987;-88
2023/09/05 04:50:15;;;;;;;;;;;;;;;;;;5015835;28;19922;-88
2023/09/05 04:52:41;;;;;;;;;;;;;;;;;;5031296;28;19921;-87
2023/09/05 04:55:06;;;;;;;;;;;;;;;;;;5004140;28;19971;-85
2023/09/05 04:57:31;;;;;;;;;;;;;;;;;;4995908;28;19928;-85
2023/09/05 04:59:57;;;;;;;;;;;;;;;;;;5025490;28;19976;-86
2023/09/05 05:02:46;;;;;;;;;;;;;;;;;;5039317;28;20025;-90
2023/09/05 05:05:16;;;;;;;;;;;;;;;;;;5009961;28;19971;-91
2023/09/05 05:07:41;;;;;;;;;;;;;;;;;;5023451;28;20032;-91
2023/09/05 05:10:07;;;;;;;;;;;;;;;;;;5036759;28;20042;-92
2023/09/05 05:12:33;;;;;;;;;;;;;;;;;;5032533;28;20038;-91
2023/09/05 05:14:58;;;;;;;;;;;;;;;;;;5013968;28;19920;-90
2023/09/05 05:17:26;;;;;;;;;;;;;;;;;;5040879;28;19921;-90
2023/09/05 05:19:56;;;;;;;;;;;;;;;;;;5034150;28;20027;-90
2023/09/05 05:22:21;;;;;;;;;;;;;;;;;;5025400;28;20007;-89
2023/09/05 05:24:47;;;;;;;;;;;;;;;;;;5040660;28;20036;-87
2023/09/05 05:27:17;;;;;;;;;;;;;;;;;;5020123;28;19921;-88
2023/09/05 05:29:42;;;;;;;;;;;;;;;;;;5029058;28;20269;-87
2023/09/05 05:32:08;;;;;;;;;;;;;;;;;;5011703;28;19921;-88
2023/09/05 05:34:36;;;;;;;;;;;;;;;;;;5015300;28;19921;-86
2023/09/05 05:37:01;;;;;;;;;;;;;;;;;;5003292;28;20353;-86
2023/09/05 05:39:26;;;;;;;;;;;;;;;;;;5013147;28;19975;-86
2023/09/05 05:41:51;;;;;;;;;;;;;;;;;;5011171;28;20055;-87
2023/09/05 05:44:17;;;;;;;;;;;;;;;;;;5045412;28;20010;-87
2023/09/05 05:46:43;;;;;;;;;;;;;;;;;;5036383;28;19947;-85
2023/09/05 05:49:09;;;;;;;;;;;;;;;;;;5053208;28;20255;-86
2023/09/05 05:51:34;;;;;;;;;;;;;;;;;;5054042;28;19933;-87
2023/09/05 05:54:02;;;;;;;;;;;;;;;;;;5054829;28;19960;-86
2023/09/05 05:56:34;;;;;;;;;;;;;;;;;;5043534;28;20313;-86
2023/09/05 05:59:00;;;;;;;;;;;;;;;;;;5024573;28;20558;-86
2023/09/05 06:01:26;;;;;;;;;;;;;;;;;;5039861;28;20026;-87
2023/09/05 06:03:51;;;;;;;;;;;;;;;;;;5008770;28;19944;-86
2023/09/05 06:06:23;;;;;;;;;;;;;;;;;;5023364;28;19929;-86
2023/09/05 06:08:51;;;;;;;;;;;;;;;;;;5012216;28;19929;-87
2023/09/05 06:11:16;;;;;;;;;;;;;;;;;;5043370;28;20402;-86
2023/09/05 06:13:41;;;;;;;;;;;;;;;;;;4984876;28;20002;-87
2023/09/05 06:16:07;;;;;;;;;;;;;;;;;;5037184;28;19943;-87
2023/09/05 06:18:32;;;;;;;;;;;;;;;;;;5016079;28;19921;-86
2023/09/05 06:20:57;;;;;;;;;;;;;;;;;;5039361;28;19924;-87
2023/09/05 06:23:23;;;;;;;;;;;;;;;;;;4996681;28;20007;-87
2023/09/05 06:26:16;;;;;;;;;;;;;;;;;;4953734;28;20378;-87
2023/09/05 06:28:44;;;;;;;;;;;;;;;;;;4961925;28;20111;-87
2023/09/05 06:31:09;;;;;;;;;;;;;;;;;;4998522;28;20417;-87
2023/09/05 06:33:34;;;;;;;;;;;;;;;;;;4997687;28;19926;-86
2023/09/05 06:36:06;;;;;;;;;;;;;;;;;;4973227;28;19922;-86
2023/09/05 06:38:34;;;;;;;;;;;;;;;;;;4982883;28;19918;-87
2023/09/05 06:41:05;;;;;;;;;;;;;;;;;;4979181;28;20373;-85
2023/09/05 06:43:31;;;;;;;;;;;;;;;;;;4986396;28;19953;-87
2023/09/05 06:46:02;;;;;;;;;;;;;;;;;;4961521;28;19979;-86
2023/09/05 06:48:29;;;;;;;;;;;;;;;;;;4997236;28;20436;-87
2023/09/05 06:50:55;;;;;;;;;;;;;;;;;;4995744;28;19922;-87
2023/09/05 06:53:21;;;;;;;;;;;;;;;;;;4960348;28;19949;-87
2023/09/05 06:55:51;;;;;;;;;;;;;;;;;;4996547;28;19917;-85
2023/09/05 06:58:17;;;;;;;;;;;;;;;;;;4995618;28;19961;-86
2023/09/05 07:00:42;;;;;;;;;;;;;;;;;;5026812;28;19921;-87
2023/09/05 07:03:07;;;;;;;;;;;;;;;;;;5016864;28;20385;-87
2023/09/05 07:05:42;;;;;;;;;;;;;;;;;;5044223;28;20019;-87
2023/09/05 07:08:07;;;;;;;;;;;;;;;;;;5023159;28;20036;-87
2023/09/05 07:10:33;;;;;;;;;;;;;;;;;;5055406;28;20029;-86
2023/09/05 07:12:58;;;;;;;;;;;;;;;;;;5026826;28;19921;-85
2023/09/05 07:15:23;;;;;;;;;;;;;;;;;;5038995;28;19928;-86
2023/09/05 07:17:49;;;;;;;;;;;;;;;;;;5051665;28;20317;-87
2023/09/05 07:20:15;;;;;;;;;;;;;;;;;;5035159;28;20447;-87
2023/09/05 07:22:41;;;;;;;;;;;;;;;;;;5053442;28;19974;-87
2023/09/05 07:25:06;;;;;;;;;;;;;;;;;;5016540;28;19928;-87
2023/09/05 07:27:32;;;;;;;;;;;;;;;;;;4997867;28;19940;-87
2023/09/05 07:30:03;;;;;;;;;;;;;;;;;;5039401;28;20000;-87
2023/09/05 07:32:28;;;;;;;;;;;;;;;;;;5017706;28;19964;-87
2023/09/05 07:34:54;;;;;;;;;;;;;;;;;;4993333;28;19925;-83
2023/09/05 07:37:20;;;;;;;;;;;;;;;;;;5038296;28;19924;-84
2023/09/05 07:39:49;;;;;;;;;;;;;;;;;;5006223;28;19927;-83
2023/09/05 07:42:17;;;;;;;;;;;;;;;;;;5012143;28;20377;-84
2023/09/05 07:44:43;;;;;;;;;;;;;;;;;;5045807;28;19921;-84
2023/09/05 07:47:09;;;;;;;;;;;;;;;;;;5037129;28;20424;-84
2023/09/05 07:49:38;;;;;;;;;;;;;;;;;;5032397;28;19932;-84
2023/09/05 07:52:04;;;;;;;;;;;;;;;;;;5003704;28;19924;-84
2023/09/05 07:54:29;;;;;;;;;;;;;;;;;;5030271;28;20458;-83
2023/09/05 07:56:55;;;;;;;;;;;;;;;;;;5054202;28;19951;-84
2023/09/05 07:59:20;;;;;;;;;;;;;;;;;;5044244;28;19978;-83
2023/09/05 08:01:45;;;;;;;;;;;;;;;;;;5053149;28;20004;-84
2023/09/05 08:04:13;;;;;;;;;;;;;;;;;;5045492;28;19921;-84
2023/09/05 08:06:39;;;;;;;;;;;;;;;;;;5039455;28;19921;-84
2023/09/05 08:09:04;;;;;;;;;;;;;;;;;;5042816;28;19932;-83
2023/09/05 08:11:29;;;;;;;;;;;;;;;;;;5033368;28;19926;-84
2023/09/05 08:13:54;;;;;;;;;;;;;;;;;;5035020;28;19920;-83
2023/09/05 08:16:20;;;;;;;;;;;;;;;;;;5053803;28;19984;-84
2023/09/05 08:18:45;;;;;;;;;;;;;;;;;;5053414;28;20364;-83
2023/09/05 08:21:13;;;;;;;;;;;;;;;;;;5046845;28;19923;-83
2023/09/05 08:23:38;;;;;;;;;;;;;;;;;;5048764;28;19954;-85
2023/09/05 08:26:04;;;;;;;;;;;;;;;;;;5005597;28;19921;-84
2023/09/05 08:28:33;;;;;;;;;;;;;;;;;;5034887;28;19929;-82
2023/09/05 08:31:02;;;;;;;;;;;;;;;;;;5017720;28;19921;-84
2023/09/05 08:33:28;;;;;;;;;;;;;;;;;;5038994;28;19921;-84
2023/09/05 08:35:54;;;;;;;;;;;;;;;;;;4994246;28;19921;-83
2023/09/05 08:38:22;;;;;;;;;;;;;;;;;;5022458;28;19928;-83
2023/09/05 08:40:48;;;;;;;;;;;;;;;;;;5027999;28;20415;-83
2023/09/05 08:43:15;;;;;;;;;;;;;;;;;;5006879;28;19921;-83
2023/09/05 08:45:40;;;;;;;;;;;;;;;;;;5036549;28;19925;-83
2023/09/05 08:48:06;;;;;;;;;;;;;;;;;;5004558;28;19929;-83
2023/09/05 08:50:31;;;;;;;;;;;;;;;;;;5000880;28;19971;-84
2023/09/05 08:52:56;;;;;;;;;;;;;;;;;;5022167;28;19960;-84
2023/09/05 08:55:24;;;;;;;;;;;;;;;;;;5009039;28;19927;-83
2023/09/05 08:57:52;;;;;;;;;;;;;;;;;;5040830;28;19921;-84
2023/09/05 09:00:18;;;;;;;;;;;;;;;;;;5033595;28;19928;-84
2023/09/05 09:02:46;;;;;;;;;;;;;;;;;;5020421;28;19921;-83
2023/09/05 09:05:11;;;;;;;;;;;;;;;;;;5035317;28;19921;-84
2023/09/05 09:07:37;;;;;;;;;;;;;;;;;;5029045;28;19927;-84
2023/09/05 09:10:23;;;;;;;;;;;;;;;;;;5021393;28;19925;-83
2023/09/05 09:12:52;;;;;;;;;;;;;;;;;;5034625;28;19920;-83
2023/09/05 09:15:17;;;;;;;;;;;;;;;;;;5039078;28;19933;-84
2023/09/05 09:17:45;;;;;;;;;;;;;;;;;;5023245;28;20479;-84
2023/09/05 09:20:12;;;;;;;;;;;;;;;;;;5028610;28;19921;-84
2023/09/05 09:22:41;;;;;;;;;;;;;;;;;;5019463;28;19924;-84
2023/09/05 09:25:14;;;;;;;;;;;;;;;;;;5008052;28;20312;-84
2023/09/05 09:27:48;;;;;;;;;;;;;;;;;;5014575;28;19975;-84
2023/09/05 09:30:14;;;;;;;;;;;;;;;;;;5013171;28;20377;-84
2023/09/05 09:32:39;;;;;;;;;;;;;;;;;;5048089;28;19927;-83
2023/09/05 09:35:05;;;;;;;;;;;;;;;;;;5023028;28;19925;-84
2023/09/05 09:37:31;;;;;;;;;;;;;;;;;;5038966;28;19924;-84
2023/09/05 09:39:57;;;;;;;;;;;;;;;;;;5020853;28;19920;-84
2023/09/05 09:42:23;;;;;;;;;;;;;;;;;;5029676;28;20288;-84
2023/09/05 09:44:48;;;;;;;;;;;;;;;;;;5020642;28;19916;-84
2023/09/05 09:47:13;;;;;;;;;;;;;;;;;;5028260;28;19922;-84
2023/09/05 09:49:41;;;;;;;;;;;;;;;;;;4994281;28;20369;-84
2023/09/05 09:52:06;;;;;;;;;;;;;;;;;;5009019;28;19925;-84
2023/09/05 09:54:36;;;;;;;;;;;;;;;;;;5014057;28;19921;-84
2023/09/05 09:57:04;;;;;;;;;;;;;;;;;;5003902;28;19923;-83
2023/09/05 09:59:35;;;;;;;;;;;;;;;;;;5044933;28;20418;-83
2023/09/05 10:02:04;;;;;;;;;;;;;;;;;;5008079;28;19967;-84
2023/09/05 10:04:29;;;;;;;;;;;;;;;;;;5053163;28;20020;-82
2023/09/05 10:07:20;;;;;;;;;;;;;;;;;;5023517;28;19972;-83
2023/09/05 10:10:12;;;;;;;;;;;;;;;;;;4970926;28;20036;-83
2023/09/05 10:12:45;;;;;;;;;;;;;;;;;;4968276;28;19929;-83
2023/09/05 10:15:11;;;;;;;;;;;;;;;;;;4989063;28;19985;-84
2023/09/05 10:17:36;;;;;;;;;;;;;;;;;;4975472;28;19983;-83
2023/09/05 10:20:02;;;;;;;;;;;;;;;;;;4990559;28;19918;-83
2023/09/05 10:22:28;;;;;;;;;;;;;;;;;;4990971;28;19929;-81
2023/09/05 10:24:53;;;;;;;;;;;;;;;;;;4978156;28;20008;-82
2023/09/05 10:27:18;;;;;;;;;;;;;;;;;;4980151;28;20253;-82
2023/09/05 10:29:48;;;;;;;;;;;;;;;;;;4995878;28;20366;-83
2023/09/05 10:32:14;;;;;;;;;;;;;;;;;;5000600;28;20065;-83
2023/09/05 10:34:45;;;;;;;;;;;;;;;;;;4956334;28;20398;-83
2023/09/05 10:37:11;;;;;;;;;;;;;;;;;;4985753;28;19928;-80
2023/09/05 10:39:37;;;;;;;;;;;;;;;;;;4998494;28;19929;-81
2023/09/05 10:42:02;;;;;;;;;;;;;;;;;;4977659;28;19922;-82
2023/09/05 10:44:29;;;;;;;;;;;;;;;;;;4989533;28;20019;-82
2023/09/05 10:46:54;;;;;;;;;;;;;;;;;;4976206;28;19972;-82
2023/09/05 10:49:20;;;;;;;;;;;;;;;;;;4973531;28;20378;-82
2023/09/05 10:52:07;;;;;;;;;;;;;;;;;;4974601;28;19945;-83
2023/09/05 10:54:34;;;;;;;;;;;;;;;;;;4981252;28;19930;-82
2023/09/05 10:57:01;;;;;;;;;;;;;;;;;;4994832;28;19927;-81
2023/09/05 10:59:30;;;;;;;;;;;;;;;;;;5001326;28;19917;-82
2023/09/05 11:02:00;;;;;;;;;;;;;;;;;;5000087;28;20274;-81
2023/09/05 11:04:27;;;;;;;;;;;;;;;;;;4987398;28;20566;-82
2023/09/05 11:06:59;;;;;;;;;;;;;;;;;;4981513;28;19918;-82
2023/09/05 11:09:24;;;;;;;;;;;;;;;;;;5025122;28;20356;-82
2023/09/05 11:11:50;;;;;;;;;;;;;;;;;;5009372;28;19921;-83
2023/09/05 11:14:15;;;;;;;;;;;;;;;;;;5020967;28;20384;-83
2023/09/05 11:16:49;;;;;;;;;;;;;;;;;;5017985;28;19921;-83
2023/09/05 11:19:33;;;;;;;;;;;;;;;;;;5033672;28;19932;-82
2023/09/05 11:22:17;;;;;;;;;;;;;;;;;;5023783;28;20016;-83
2023/09/05 11:24:48;;;;;;;;;;;;;;;;;;5000429;28;19921;-82
2023/09/05 11:27:15;;;;;;;;;;;;;;;;;;4996164;28;19928;-84
2023/09/05 11:29:42;;;;;;;;;;;;;;;;;;5014361;28;19922;-84
2023/09/05 11:32:12;;;;;;;;;;;;;;;;;;5003505;28;19921;-84
2023/09/05 11:34:39;;;;;;;;;;;;;;;;;;5017533;28;20057;-83
2023/09/05 11:37:04;;;;;;;;;;;;;;;;;;4986079;28;19995;-84
2023/09/05 11:39:29;;;;;;;;;;;;;;;;;;5040852;28;20409;-84
2023/09/05 11:41:58;;;;;;;;;;;;;;;;;;5001317;28;19921;-83
2023/09/05 11:44:34;;;;;;;;;;;;;;;;;;4999601;28;19921;-83
2023/09/05 11:46:59;;;;;;;;;;;;;;;;;;5011676;28;20535;-83
2023/09/05 11:49:24;;;;;;;;;;;;;;;;;;5031735;28;19921;-84
2023/09/05 11:51:49;;;;;;;;;;;;;;;;;;5004186;28;19932;-84
2023/09/05 11:54:22;;;;;;;;;;;;;;;;;;5007092;28;19944;-84
2023/09/05 11:56:50;;;;;;;;;;;;;;;;;;5017202;28;19921;-84
2023/09/05 11:59:15;;;;;;;;;;;;;;;;;;5021450;28;19926;-84
2023/09/05 12:01:41;;;;;;;;;;;;;;;;;;5008358;28;19948;-84
2023/09/05 12:04:06;;;;;;;;;;;;;;;;;;5030338;28;20016;-83
2023/09/05 12:06:37;;;;;;;;;;;;;;;;;;5004091;28;19925;-83
2023/09/05 12:09:03;;;;;;;;;;;;;;;;;;5001979;28;19995;-83
2023/09/05 12:11:28;;;;;;;;;;;;;;;;;;4992297;28;19992;-82
2023/09/05 12:13:57;;;;;;;;;;;;;;;;;;5013895;28;20328;-83
2023/09/05 12:16:25;;;;;;;;;;;;;;;;;;5008834;28;20781;-83
2023/09/05 12:18:57;;;;;;;;;;;;;;;;;;5024739;28;20697;-83
2023/09/05 12:21:22;;;;;;;;;;;;;;;;;;5029577;28;20377;-83
2023/09/05 12:23:48;;;;;;;;;;;;;;;;;;4999450;28;19925;-83
2023/09/05 12:26:15;;;;;;;;;;;;;;;;;;4987262;28;19917;-82
2023/09/05 12:28:41;;;;;;;;;;;;;;;;;;5006105;28;20409;-83
2023/09/05 12:31:10;;;;;;;;;;;;;;;;;;5001006;28;19925;-83
2023/09/05 12:33:35;;;;;;;;;;;;;;;;;;5006053;28;19922;-83
2023/09/05 12:36:00;;;;;;;;;;;;;;;;;;5032643;28;19932;-83
2023/09/05 12:38:29;;;;;;;;;;;;;;;;;;5035183;28;19929;-84
2023/09/05 12:40:54;;;;;;;;;;;;;;;;;;4989487;28;20288;-83
2023/09/05 12:43:20;;;;;;;;;;;;;;;;;;5049097;28;20008;-83
2023/09/05 12:45:51;;;;;;;;;;;;;;;;;;5002873;28;20301;-83
2023/09/05 12:48:17;;;;;;;;;;;;;;;;;;5022784;28;20400;-84
2023/09/05 12:50:45;;;;;;;;;;;;;;;;;;4983004;28;20008;-84
2023/09/05 12:53:10;;;;;;;;;;;;;;;;;;5035627;28;19917;-84
2023/09/05 12:55:36;;;;;;;;;;;;;;;;;;5007501;28;20308;-83
2023/09/05 12:58:03;;;;;;;;;;;;;;;;;;4994158;28;20404;-83
2023/09/05 13:00:28;;;;;;;;;;;;;;;;;;5002542;28;19917;-83
2023/09/05 13:02:54;;;;;;;;;;;;;;;;;;5038380;28;19922;-84
2023/09/05 13:05:19;;;;;;;;;;;;;;;;;;4997137;28;19921;-84
2023/09/05 13:07:45;;;;;;;;;;;;;;;;;;5038397;28;20024;-83
2023/09/05 13:10:13;;;;;;;;;;;;;;;;;;4995797;28;26529;-83
2023/09/05 13:12:39;;;;;;;;;;;;;;;;;;5006871;28;19960;-84
2023/09/05 13:15:04;;;;;;;;;;;;;;;;;;5004948;28;20369;-84
2023/09/05 13:17:32;;;;;;;;;;;;;;;;;;5019752;28;19929;-83
2023/09/05 13:20:00;;;;;;;;;;;;;;;;;;5006669;28;20296;-84
2023/09/05 13:22:26;;;;;;;;;;;;;;;;;;5007163;28;20377;-84
2023/09/05 13:24:51;;;;;;;;;;;;;;;;;;4995978;28;19921;-84
2023/09/05 13:27:18;;;;;;;;;;;;;;;;;;4972074;28;20318;-84
2023/09/05 13:29:54;;;;;;;;;;;;;;;;;;4981228;28;19922;-84
2023/09/05 13:32:24;;;;;;;;;;;;;;;;;;5028459;28;20385;-83
2023/09/05 13:34:50;;;;;;;;;;;;;;;;;;5007924;28;20012;-84
2023/09/05 13:37:15;;;;;;;;;;;;;;;;;;5017780;28;19969;-83
2023/09/05 13:39:40;;;;;;;;;;;;;;;;;;5014332;28;19975;-84
2023/09/05 13:42:06;;;;;;;;;;;;;;;;;;5018186;28;19978;-83
2023/09/05 13:44:32;;;;;;;;;;;;;;;;;;5034910;28;19925;-84
2023/09/05 13:46:58;;;;;;;;;;;;;;;;;;5021659;28;19940;-84
2023/09/05 13:49:23;;;;;;;;;;;;;;;;;;5028952;28;19918;-83
2023/09/05 13:51:48;;;;;;;;;;;;;;;;;;5006297;28;20464;-84
2023/09/05 13:54:14;;;;;;;;;;;;;;;;;;5042101;28;20394;-84
2023/09/05 13:56:42;;;;;;;;;;;;;;;;;;4994187;28;20041;-84
2023/09/05 13:59:07;;;;;;;;;;;;;;;;;;5028403;28;19937;-83
2023/09/05 14:01:32;;;;;;;;;;;;;;;;;;5015815;28;19921;-83
2023/09/05 14:03:58;;;;;;;;;;;;;;;;;;5017924;28;19917;-84
2023/09/05 14:06:25;;;;;;;;;;;;;;;;;;5017478;28;19963;-83
2023/09/05 14:08:50;;;;;;;;;;;;;;;;;;4988725;28;19940;-84
2023/09/05 14:11:15;;;;;;;;;;;;;;;;;;4977151;28;19926;-83
2023/09/05 14:13:41;;;;;;;;;;;;;;;;;;5031416;28;19984;-83
2023/09/05 14:16:06;;;;;;;;;;;;;;;;;;5011765;28;19925;-83
2023/09/05 14:18:32;;;;;;;;;;;;;;;;;;5019070;28;19983;-83
2023/09/05 14:20:57;;;;;;;;;;;;;;;;;;5030236;28;20016;-83
2023/09/05 14:23:22;;;;;;;;;;;;;;;;;;5028168;28;19921;-83
2023/09/05 14:25:53;;;;;;;;;;;;;;;;;;5015920;28;20450;-82
2023/09/05 14:28:24;;;;;;;;;;;;;;;;;;5011125;28;20091;-82
2023/09/05 14:30:49;;;;;;;;;;;;;;;;;;5005559;28;19921;-82
2023/09/05 14:33:15;;;;;;;;;;;;;;;;;;5015806;28;19967;-82
2023/09/05 14:35:40;;;;;;;;;;;;;;;;;;5014047;28;20497;-82
2023/09/05 14:38:05;;;;;;;;;;;;;;;;;;5012989;28;20329;-82
2023/09/05 14:40:31;;;;;;;;;;;;;;;;;;5014106;28;19923;-82
2023/09/05 14:42:56;;;;;;;;;;;;;;;;;;5018995;28;19914;-82
2023/09/05 14:45:21;;;;;;;;;;;;;;;;;;5014847;28;19976;-83
2023/09/05 14:47:47;;;;;;;;;;;;;;;;;;4998464;28;19922;-83
2023/09/05 14:50:12;;;;;;;;;;;;;;;;;;5022323;28;19924;-83
2023/09/05 14:52:37;;;;;;;;;;;;;;;;;;5001624;28;19921;-83
2023/09/05 14:55:05;;;;;;;;;;;;;;;;;;4995075;28;19941;-83
2023/09/05 14:57:31;;;;;;;;;;;;;;;;;;4997411;28;20305;-82
2023/09/05 14:59:56;;;;;;;;;;;;;;;;;;4996374;28;19925;-81
2023/09/05 15:02:27;;;;;;;;;;;;;;;;;;5013501;28;20647;-82
2023/09/05 15:04:54;;;;;;;;;;;;;;;;;;5015729;28;19924;-81
2023/09/05 15:07:19;;;;;;;;;;;;;;;;;;5021418;28;19917;-82
2023/09/05 15:09:44;;;;;;;;;;;;;;;;;;5042969;28;19952;-81
2023/09/05 15:12:13;;;;;;;;;;;;;;;;;;5009472;28;20717;-80
2023/09/05 15:14:38;;;;;;;;;;;;;;;;;;5004132;28;19924;-82
2023/09/05 15:17:04;;;;;;;;;;;;;;;;;;4997128;28;19963;-82
2023/09/05 15:19:30;;;;;;;;;;;;;;;;;;5027340;28;20365;-82
2023/09/05 15:21:55;;;;;;;;;;;;;;;;;;5004852;28;20035;-83
2023/09/05 15:24:21;;;;;;;;;;;;;;;;;;5029898;28;19921;-81
2023/09/05 15:26:46;;;;;;;;;;;;;;;;;;5001430;28;20353;-81
2023/09/05 15:29:11;;;;;;;;;;;;;;;;;;5019877;28;20012;-82
2023/09/05 15:31:37;;;;;;;;;;;;;;;;;;5011104;28;19926;-82
2023/09/05 15:34:05;;;;;;;;;;;;;;;;;;5014891;28;20378;-82
2023/09/05 15:36:31;;;;;;;;;;;;;;;;;;5007439;28;20270;-82
2023/09/05 15:38:56;;;;;;;;;;;;;;;;;;5007881;28;19929;-81
2023/09/05 15:41:21;;;;;;;;;;;;;;;;;;5015634;28;19944;-81
2023/09/05 15:43:47;;;;;;;;;;;;;;;;;;5002107;28;20024;-81
2023/09/05 15:46:16;;;;;;;;;;;;;;;;;;5024839;28;19928;-82
2023/09/05 15:48:41;;;;;;;;;;;;;;;;;;5013494;28;19921;-82
2023/09/05 15:51:07;;;;;;;;;;;;;;;;;;5002772;28;19925;-82
2023/09/05 15:53:32;;;;;;;;;;;;;;;;;;5002788;28;19947;-82
2023/09/05 15:56:00;;;;;;;;;;;;;;;;;;5018875;28;19922;-82
2023/09/05 15:58:26;;;;;;;;;;;;;;;;;;5017519;28;20288;-82
2023/09/05 16:00:51;;;;;;;;;;;;;;;;;;5050315;28;19925;-82
2023/09/05 16:03:20;;;;;;;;;;;;;;;;;;5041210;28;19996;-82
2023/09/05 16:05:59;;;;;;;;;;;;;;;;;;5016344;28;19917;-81
2023/09/05 16:08:30;;;;;;;;;;;;;;;;;;5047768;28;20815;-81
2023/09/05 16:11:16;;;;;;;;;;;;;;;;;;5013359;28;20024;-81
2023/09/05 16:13:43;;;;;;;;;;;;;;;;;;5030230;28;20008;-81
2023/09/05 16:16:08;;;;;;;;;;;;;;;;;;5023349;28;19917;-83
2023/09/05 16:18:35;;;;;;;;;;;;;;;;;;5046202;28;19948;-82
2023/09/05 16:21:14;;;;;;;;;;;;;;;;;;5008382;28;19920;-82
2023/09/05 16:23:40;;;;;;;;;;;;;;;;;;5026741;28;19920;-82
2023/09/05 16:26:05;;;;;;;;;;;;;;;;;;5012492;28;19921;-82
2023/09/05 16:28:30;;;;;;;;;;;;;;;;;;5021339;28;19944;-81
2023/09/05 16:30:56;;;;;;;;;;;;;;;;;;4986207;28;20427;-82
2023/09/05 16:33:26;;;;;;;;;;;;;;;;;;5019451;28;20322;-83
2023/09/05 16:36:09;;;;;;;;;;;;;;;;;;5008094;28;19931;-83
2023/09/05 16:38:35;;;;;;;;;;;;;;;;;;5019637;28;20462;-83
2023/09/05 16:41:08;;;;;;;;;;;;;;;;;;5048389;28;20000;-83
2023/09/05 16:43:33;;;;;;;;;;;;;;;;;;5034921;28;20391;-82
2023/09/05 16:45:58;;;;;;;;;;;;;;;;;;5017660;28;20016;-82